Abingdon, Iowa
Current Conditions -  °F | °C
As of 5:15 AM on Monday 20 Oct 2014 (Local Time) from KFFL Reporting Station
Clear Clear  
Wind Chill: 50°   Ceiling: Unl
Heat Index: 50°   Visibility: NA
Dew Point: 45°   Wind: 8mph
Humidity: 82%   Direction: 290°WNW
Pressure: 29.92"   Gusts: NA
Location:  40.9883°N, 92.1215°W
Report Text: KFFL 201015Z AUTO 29007KT CLR 10/07 A2992 RMK AO2
Loading
Personal Weather Stations






























Interactive Weather Map New forecast layout! Learn more

10-Day Weather Forecast

Advertisements
Track Severe Weather on mobile